Startpagina
METAR-TAF:

METAR-TAF

Vliegvelden :

Cajamarca, Peru

breedte: 07-08S, lengte: 078-28W, hoogte: 2620 m

Actueel weer

Dit bericht is 53 minuten geleden gemaakt, om 10:00 UTC
Wind 1 kt uit variabele richting
Temperatuur 10°C
Vochtigheid 87%
Druk 1028 hPa
Zicht 10 km of meer
Weinig wolken op 2700 ft

METAR: SPJR 221000Z VRB01KT 9999 FEW027 10/08 Q1028 RMK PP000

Tijdstip: 05:53 (10:53 UTC)

Verwachting

Dit bericht is 23 uur en het 53 minuten geleden gemaakt, om 11:00 UTC
Verwachting geldig van 21 om 12 UTC tot 22 om 12 UTC
Wind 2 kt uit variabele richting
Zicht 10 km of meer
Weinig wolken op 2300 ft
Wijzigt naar
van 21 om 16 UTC tot 21 om 18 UTC
Wind 8 kt uit het zuidzuidoosten
Verspreide wolken op 2300 ft
Gebroken wolken op 4600 ft
Wijzigt naar
van 21 om 22 UTC tot 22 om 00 UTC
Wind 2 kt uit variabele richting
Verspreide wolken op 2000 ft

TAF: SPJR 211100Z 2112/2212 VRB02KT 9999 FEW023 TX25/2119Z TN11/2211Z BECMG 2116/2118 16008KT SCT023 BKN046 BECMG 2122/2200 VRB02KT SCT020

Waarnemingen en weersverwachtingen van meer dan 4000 vliegvelden (METAR en TAF).

De beschikbare stations zijn de gele en rode punten op de kaart.

Ga met uw muis naar het station om de naam te zien.

Klik dan om waarnemingen en weersverwachtingen te zien.

kaart wijzigen: klik op de groene knoppen met een zwart kruis om in te zoomen, op de groene knop met een streepje om uit te zoomen of op de groene pijlen voor aangrenzende kaarten.


METAR-TAF: